Time;durP1;ratioP1;P1;durP2;ratioP2;P2;SDS_P1;SDS_P2;PMS_P1;PMS_P2;Temp;Humidity;BMP_temperature;BMP_pressure;BME280_temperature;BME280_humidity;BME280_pressure;Samples;Min_cycle;Max_cycle;Signal;HPM_P1;HPM_P2
2022/08/09 10:26:28;;;;;;;3.30;2.10;;;;;;;;;;5066524;28;20824;-55
2022/08/09 10:28:53;;;;;;;5.03;2.10;;;;;;;;;;5045943;28;20013;-57
2022/08/09 10:31:19;;;;;;;3.55;1.98;;;;;;;;;;5039511;28;20052;-53
2022/08/09 10:33:44;;;;;;;4.88;1.92;;;;;;;;;;5042316;28;20492;-55
2022/08/09 10:36:09;;;;;;;3.95;2.28;;;;;;;;;;5046223;28;20021;-54
2022/08/09 10:38:34;;;;;;;4.55;1.95;;;;;;;;;;5044707;28;20035;-56
2022/08/09 10:40:59;;;;;;;3.97;1.98;;;;;;;;;;5036147;28;20029;-54
2022/08/09 10:49:38;;;;;;;3.60;2.10;;;;;;;;;;5046588;28;20454;-56
2022/08/09 10:53:42;;;;;;;;;;;;;;;;;;5113064;27;20570;-74
2022/08/09 10:56:08;;;;;;;4.13;2.35;;;;;;;;;;5102499;28;19986;-74
2022/08/09 10:58:33;;;;;;;4.15;2.20;;;;;;;;;;5093914;28;20035;-73
2022/08/09 11:00:58;;;;;;;4.43;1.85;;;;;;;;;;5104089;28;20413;-57
2022/08/09 11:03:23;;;;;;;2.80;1.73;;;;;;;;;;5103376;28;20467;-60
2022/08/09 11:05:48;;;;;;;4.47;2.00;;;;;;;;;;5096917;28;20012;-60
2022/08/09 11:08:13;;;;;;;5.43;1.98;;;;;;;;;;5107066;28;20023;-60
2022/08/09 11:10:38;;;;;;;;;;;;;;;;;;5104171;28;20495;-60
2022/08/09 11:13:03;;;;;;;4.22;1.85;;;;;;;;;;5099792;28;20332;-63
2022/08/09 11:15:28;;;;;;;;;;;;;;;;;;5104434;28;20547;-61
2022/08/09 11:17:55;;;;;;;5.90;2.17;;;;;;;;;;5095573;28;19911;-59
2022/08/09 11:20:21;;;;;;;4.57;2.10;;;;;;;;;;5103469;28;20360;-63
2022/08/09 11:22:47;;;;;;;5.03;2.10;;;;;;;;;;5108434;28;20012;-59
2022/08/09 11:25:12;;;;;;;;;;;;;;;;;;5102155;28;20015;-59
2022/08/09 11:27:37;;;;;;;2.45;1.90;;;;;;;;;;5106272;28;19904;-59
2022/08/09 11:30:03;;;;;;;6.53;1.85;;;;;;;;;;5103536;28;20008;-59
2022/08/09 11:32:28;;;;;;;;;;;;;;;;;;5108780;28;20027;-59
2022/08/09 11:34:53;;;;;;;4.25;2.00;;;;;;;;;;5103092;28;19915;-62
2022/08/09 11:37:18;;;;;;;3.60;2.00;;;;;;;;;;5100383;28;20383;-59
2022/08/09 11:39:43;;;;;;;4.60;2.08;;;;;;;;;;5095424;28;20078;-60
2022/08/09 11:42:08;;;;;;;5.22;1.80;;;;;;;;;;5081904;28;20020;-59
2022/08/09 11:44:33;;;;;;;4.10;1.98;;;;;;;;;;5087798;28;20020;-59
2022/08/09 11:46:59;;;;;;;4.25;1.95;;;;;;;;;;5080951;28;20066;-59
2022/08/09 11:49:24;;;;;;;3.92;1.95;;;;;;;;;;5084540;28;20028;-59
2022/08/09 11:51:49;;;;;;;;;;;;;;;;;;5082816;28;20046;-60
2022/08/09 11:54:15;;;;;;;4.70;1.70;;;;;;;;;;5067897;28;19912;-59
2022/08/09 11:56:40;;;;;;;3.77;1.70;;;;;;;;;;5060031;28;20020;-79
2022/08/09 11:59:06;;;;;;;4.17;1.80;;;;;;;;;;5059737;28;20044;-68
2022/08/09 12:01:31;;;;;;;4.00;1.90;;;;;;;;;;5051576;28;20025;-65
2022/08/09 12:03:56;;;;;;;4.55;1.85;;;;;;;;;;5054707;28;20497;-65
2022/08/09 12:06:22;;;;;;;3.30;1.80;;;;;;;;;;5046284;28;20611;-64
2022/08/09 12:08:47;;;;;;;3.05;2.00;;;;;;;;;;5049729;28;20017;-67
2022/08/09 12:11:12;;;;;;;3.38;1.90;;;;;;;;;;5047830;28;20468;-64
2022/08/09 12:13:37;;;;;;;3.70;2.00;;;;;;;;;;5020802;28;20115;-68
2022/08/09 12:16:02;;;;;;;3.67;1.80;;;;;;;;;;5026936;28;20267;-61
2022/08/09 12:18:27;;;;;;;3.03;1.63;;;;;;;;;;5044344;28;20029;-60
2022/08/09 12:20:53;;;;;;;;;;;;;;;;;;5054245;28;20017;-63
2022/08/09 12:23:18;;;;;;;3.83;1.87;;;;;;;;;;5031501;28;19909;-61
2022/08/09 12:25:43;;;;;;;6.37;2.13;;;;;;;;;;5038488;28;20021;-61
2022/08/09 12:28:08;;;;;;;;;;;;;;;;;;5034242;28;20489;-62
2022/08/09 12:30:33;;;;;;;4.68;1.50;;;;;;;;;;5032338;28;19916;-63
2022/08/09 12:32:58;;;;;;;3.30;2.00;;;;;;;;;;5030818;28;20091;-61
2022/08/09 12:35:23;;;;;;;;;;;;;;;;;;5028973;28;20044;-75
2022/08/09 12:37:48;;;;;;;3.30;1.48;;;;;;;;;;5015958;28;19963;-73
2022/08/09 12:40:16;;;;;;;4.17;1.60;;;;;;;;;;5021633;28;20025;-71
2022/08/09 12:42:41;;;;;;;3.17;1.73;;;;;;;;;;5026974;28;20028;-73
2022/08/09 12:45:07;;;;;;;;;;;;;;;;;;5021175;28;20025;-78
2022/08/09 12:47:32;;;;;;;;;;;;;;;;;;5028483;28;19909;-72
2022/08/09 12:52:41;;;;;;;4.95;1.75;;;;;;;;;;5033293;28;20084;-81
2022/08/09 12:55:08;;;;;;;3.35;1.48;;;;;;;;;;5025750;28;20048;-61
2022/08/09 12:57:33;;;;;;;4.05;1.80;;;;;;;;;;5026055;28;20056;-61
2022/08/09 12:59:59;;;;;;;;;;;;;;;;;;5031565;28;20021;-61
2022/08/09 13:02:24;;;;;;;3.58;1.65;;;;;;;;;;5013412;28;19917;-60
2022/08/09 13:04:49;;;;;;;5.55;1.58;;;;;;;;;;5026115;28;20029;-61
2022/08/09 13:07:15;;;;;;;;;;;;;;;;;;5023614;28;20030;-60
